createdAt,value
2018-07-01T00:00:53.498Z,62.60
2018-07-01T00:03:21.976Z,63.70
2018-07-01T00:05:50.514Z,64.40
2018-07-01T00:10:47.252Z,64.70
2018-07-01T00:13:15.756Z,64.70
2018-07-01T00:15:44.302Z,64.90
2018-07-01T00:18:12.806Z,65.20
2018-07-01T00:20:41.314Z,65.50
2018-07-01T00:23:09.869Z,66.30
2018-07-01T00:25:38.378Z,66.60
2018-07-01T00:28:06.918Z,66.90
2018-07-01T00:30:35.427Z,67.00
2018-07-01T00:33:03.958Z,67.70
2018-07-01T00:42:56.989Z,69.60
2018-07-01T00:52:50.055Z,69.90
2018-07-01T00:55:18.599Z,70.30
2018-07-01T00:57:47.116Z,70.60
2018-07-01T01:00:15.666Z,70.20
2018-07-01T01:02:44.211Z,69.80
2018-07-01T01:05:12.735Z,70.10
2018-07-01T01:12:37.571Z,70.10
2018-07-01T01:15:06.109Z,71.10
2018-07-01T01:17:34.611Z,70.20
2018-07-01T01:20:03.167Z,70.10
2018-07-01T01:22:31.684Z,70.90
2018-07-01T01:25:00.174Z,70.40
2018-07-01T01:27:28.699Z,70.50
2018-07-01T01:32:25.403Z,72.50
2018-07-01T01:34:53.967Z,72.60
2018-07-01T01:37:22.515Z,72.50
2018-07-01T01:39:51.064Z,72.60
2018-07-01T01:42:29.747Z,73.50
2018-07-01T01:47:33.750Z,74.20
2018-07-01T01:50:08.696Z,73.70
2018-07-01T01:53:17.028Z,74.00
2018-07-01T01:55:55.956Z,74.10
2018-07-01T01:58:29.074Z,74.40
2018-07-01T02:02:03.537Z,74.40
2018-07-01T02:04:41.901Z,73.90
2018-07-01T02:07:14.488Z,74.30
2018-07-01T02:12:12.956Z,74.70
2018-07-01T02:14:53.371Z,75.20
2018-07-01T02:17:29.044Z,75.90
2018-07-01T02:19:57.580Z,76.20
2018-07-01T02:22:37.152Z,76.30
2018-07-01T02:25:09.278Z,76.20
2018-07-01T02:27:37.846Z,75.80
2018-07-01T02:30:06.409Z,75.50
2018-07-01T02:32:34.925Z,75.70
2018-07-01T02:35:03.463Z,76.20
2018-07-01T02:37:32.009Z,76.80
2018-07-01T02:40:00.523Z,77.20
2018-07-01T02:44:57.207Z,76.50
2018-07-01T02:47:25.702Z,76.30
2018-07-01T02:49:54.453Z,76.60
2018-07-01T02:52:22.959Z,76.90
2018-07-01T02:57:19.907Z,77.10
2018-07-01T02:59:48.499Z,77.30
2018-07-01T03:02:17.007Z,77.50
2018-07-01T03:04:45.479Z,77.80
2018-07-01T03:07:13.999Z,77.60
2018-07-01T03:09:42.527Z,77.10
2018-07-01T03:12:11.009Z,77.00
2018-07-01T03:14:39.576Z,76.60
2018-07-01T03:17:08.313Z,77.20
2018-07-01T03:19:36.814Z,76.80
2018-07-01T03:22:05.340Z,77.20
2018-07-01T03:24:33.820Z,77.60
2018-07-01T03:27:02.370Z,78.20
2018-07-01T03:29:30.896Z,78.10
2018-07-01T03:31:59.639Z,77.80
2018-07-01T03:34:29.147Z,77.10
2018-07-01T03:39:25.812Z,77.60
2018-07-01T03:44:22.487Z,77.70
2018-07-01T03:46:51.002Z,78.10
2018-07-01T03:49:19.509Z,77.90
2018-07-01T03:51:47.994Z,77.90
2018-07-01T03:54:16.517Z,78.60
2018-07-01T03:56:45.032Z,79.30
2018-07-01T03:59:13.539Z,80.60
2018-07-01T04:01:42.064Z,79.80
2018-07-01T04:04:10.602Z,79.60
2018-07-01T04:06:39.070Z,80.30
2018-07-01T04:09:09.917Z,80.40
2018-07-01T04:11:38.440Z,80.50
2018-07-01T04:14:06.951Z,80.70
2018-07-01T04:16:35.457Z,80.40
2018-07-01T04:21:32.130Z,80.90
2018-07-01T04:24:00.635Z,78.80
2018-07-01T04:26:29.233Z,78.60
2018-07-01T04:28:57.759Z,79.70
2018-07-01T04:31:26.265Z,79.90
2018-07-01T04:36:22.948Z,79.60
2018-07-01T04:38:51.455Z,78.70
2018-07-01T04:41:19.961Z,79.90
2018-07-01T04:43:48.496Z,79.50
2018-07-01T04:46:16.975Z,78.40
2018-07-01T04:51:13.629Z,80.80
2018-07-01T04:53:42.128Z,79.40
2018-07-01T04:56:10.671Z,78.60
2018-07-01T04:58:39.145Z,78.70
2018-07-01T05:01:07.641Z,79.50
2018-07-01T05:03:36.168Z,79.80
2018-07-01T05:06:04.743Z,79.70
2018-07-01T05:11:01.448Z,80.90
2018-07-01T05:13:29.925Z,81.60
2018-07-01T05:15:58.418Z,80.90
2018-07-01T05:18:27.060Z,80.90
2018-07-01T05:20:55.572Z,80.30
2018-07-01T05:23:24.068Z,81.00
2018-07-01T05:25:52.589Z,81.50
2018-07-01T05:28:21.176Z,81.70
2018-07-01T05:30:49.646Z,82.30
2018-07-01T05:33:18.170Z,81.90
2018-07-01T05:35:46.782Z,81.40
2018-07-01T05:38:15.278Z,80.40
2018-07-01T05:43:11.908Z,82.60
2018-07-01T05:45:40.415Z,84.80
2018-07-01T05:48:08.916Z,84.00
2018-07-01T05:50:37.407Z,83.00
2018-07-01T05:53:06.113Z,83.10
2018-07-01T05:55:34.635Z,80.90
2018-07-01T05:58:03.133Z,81.70
2018-07-01T06:00:31.645Z,80.70
2018-07-01T06:05:28.357Z,76.60
2018-07-01T06:07:56.864Z,77.20
2018-07-01T06:10:25.411Z,75.80
2018-07-01T06:12:53.948Z,77.30
2018-07-01T06:15:22.469Z,75.40
2018-07-01T06:17:50.979Z,73.70
2018-07-01T06:20:19.511Z,71.90
2018-07-01T06:22:48.030Z,68.70
2018-07-01T06:25:16.527Z,70.00
2018-07-01T06:27:45.102Z,70.20
2018-07-01T06:30:13.603Z,69.10
2018-07-01T06:32:42.093Z,65.40
2018-07-01T06:35:10.617Z,67.00
2018-07-01T06:37:39.122Z,65.70
2018-07-01T06:40:08.113Z,68.60
2018-07-01T06:42:36.604Z,65.90
2018-07-01T06:47:33.324Z,65.30
2018-07-01T06:50:01.858Z,65.20
2018-07-01T06:54:58.514Z,62.70
2018-07-01T06:57:27.086Z,62.00
2018-07-01T06:59:55.584Z,62.50
2018-07-01T07:02:24.105Z,61.80
2018-07-01T07:04:52.680Z,61.80
2018-07-01T07:07:21.162Z,62.10
2018-07-01T07:17:14.252Z,60.10
2018-07-01T07:19:42.781Z,59.50
2018-07-01T07:22:11.701Z,59.50
2018-07-01T07:24:40.211Z,59.30
2018-07-01T07:27:08.708Z,59.10
2018-07-01T07:29:37.209Z,59.90
2018-07-01T07:32:05.869Z,58.70
2018-07-01T07:34:34.438Z,57.70
2018-07-01T07:37:02.961Z,56.30
2018-07-01T07:39:31.467Z,56.40
2018-07-01T07:44:28.107Z,57.10
2018-07-01T07:46:56.587Z,57.00
2018-07-01T07:49:25.105Z,57.80
2018-07-01T07:51:53.630Z,57.40
2018-07-01T07:54:22.121Z,57.00
2018-07-01T07:56:50.630Z,56.40
2018-07-01T07:59:19.125Z,57.50
2018-07-01T08:01:47.619Z,57.00
2018-07-01T08:04:16.136Z,59.10
2018-07-01T08:06:44.681Z,56.90
2018-07-01T08:09:13.181Z,55.60
2018-07-01T08:11:41.990Z,55.60
2018-07-01T08:14:10.547Z,55.00
2018-07-01T08:16:39.045Z,55.60
2018-07-01T08:19:07.549Z,55.30
2018-07-01T08:24:04.297Z,56.70
2018-07-01T08:26:32.776Z,56.60
2018-07-01T08:29:01.350Z,55.70
2018-07-01T08:31:29.812Z,56.10
2018-07-01T08:33:58.344Z,56.20
2018-07-01T08:36:26.855Z,56.50
2018-07-01T08:41:23.609Z,54.60
2018-07-01T08:46:20.603Z,53.90
2018-07-01T08:48:49.126Z,54.90
2018-07-01T08:51:17.630Z,54.10
2018-07-01T08:53:46.126Z,54.00
2018-07-01T08:56:14.610Z,54.70
2018-07-01T08:58:43.120Z,54.70
2018-07-01T09:01:11.652Z,53.60
2018-07-01T09:03:40.144Z,54.40
2018-07-01T09:06:08.656Z,54.50
2018-07-01T09:08:37.205Z,54.90
2018-07-01T09:11:06.166Z,54.50
2018-07-01T09:13:34.676Z,54.10
2018-07-01T09:16:03.283Z,54.00
2018-07-01T09:18:31.777Z,54.20
2018-07-01T09:21:00.329Z,53.60
2018-07-01T09:23:28.878Z,54.50
2018-07-01T09:25:57.377Z,55.60
2018-07-01T09:30:53.995Z,53.80
2018-07-01T09:33:22.495Z,53.00
2018-07-01T09:35:50.991Z,53.00
2018-07-01T09:38:19.507Z,53.40
2018-07-01T09:40:48.019Z,54.10
2018-07-01T09:43:16.567Z,53.20
2018-07-01T09:45:45.096Z,53.10
2018-07-01T09:48:13.580Z,53.90
2018-07-01T09:50:42.170Z,52.30
2018-07-01T09:53:10.610Z,51.90
2018-07-01T10:00:35.428Z,54.10
2018-07-01T10:03:03.976Z,51.40
2018-07-01T10:05:32.494Z,52.30
2018-07-01T10:08:01.008Z,53.10
2018-07-01T10:10:29.502Z,51.60
2018-07-01T10:17:54.372Z,50.40
2018-07-01T10:20:22.860Z,50.90
2018-07-01T10:22:51.373Z,50.00
2018-07-01T10:25:19.903Z,49.90
2018-07-01T10:30:16.557Z,48.70
2018-07-01T10:32:45.058Z,49.10
2018-07-01T10:35:13.583Z,48.70
2018-07-01T10:37:42.122Z,47.70
2018-07-01T10:42:38.819Z,47.70
2018-07-01T10:45:07.381Z,48.30
2018-07-01T10:50:04.143Z,48.20
2018-07-01T10:55:00.828Z,47.00
2018-07-01T10:57:29.387Z,46.70
2018-07-01T10:59:57.858Z,47.50
2018-07-01T11:02:26.379Z,46.50
2018-07-01T11:04:54.883Z,46.60
2018-07-01T11:07:23.409Z,47.20
2018-07-01T11:09:51.893Z,48.50
2018-07-01T11:12:20.460Z,47.40
2018-07-01T11:14:48.961Z,47.70
2018-07-01T11:17:17.518Z,47.70
2018-07-01T11:19:46.081Z,47.90
2018-07-01T11:22:14.613Z,47.20
2018-07-01T11:24:43.133Z,49.70
2018-07-01T11:27:11.863Z,46.60
2018-07-01T11:29:40.229Z,46.50
2018-07-01T11:32:09.521Z,47.80
2018-07-01T11:34:38.021Z,48.30
2018-07-01T11:37:06.579Z,48.40
2018-07-01T11:39:35.079Z,47.60
2018-07-01T11:42:03.615Z,49.00
2018-07-01T11:44:32.288Z,48.40
2018-07-01T11:47:00.799Z,49.00
2018-07-01T11:49:29.388Z,46.40
2018-07-01T11:51:57.915Z,45.80
2018-07-01T11:56:54.780Z,46.80
2018-07-01T11:59:23.264Z,45.80
2018-07-01T12:01:51.846Z,46.70
2018-07-01T12:04:22.828Z,45.70
2018-07-01T12:06:51.342Z,46.00
2018-07-01T12:09:19.840Z,46.20
2018-07-01T12:11:48.406Z,46.10
2018-07-01T12:14:16.966Z,45.70
2018-07-01T12:16:45.471Z,46.10
2018-07-01T12:19:14.034Z,46.40
2018-07-01T12:21:42.580Z,46.10
2018-07-01T12:24:11.134Z,46.50
2018-07-01T12:26:39.734Z,47.00
2018-07-01T12:29:08.300Z,47.20
2018-07-01T12:31:36.827Z,47.10
2018-07-01T12:34:05.846Z,46.20
2018-07-01T12:36:34.410Z,46.30
2018-07-01T12:39:03.284Z,44.90
2018-07-01T12:41:31.810Z,44.70
2018-07-01T12:44:00.311Z,44.50
2018-07-01T12:48:57.009Z,43.30
2018-07-01T12:51:25.622Z,44.20
2018-07-01T12:53:54.139Z,43.60
2018-07-01T12:56:22.954Z,44.20
2018-07-01T12:58:51.707Z,43.00
2018-07-01T13:01:20.211Z,43.40
2018-07-01T13:03:48.711Z,41.90
2018-07-01T13:06:17.324Z,40.90
2018-07-01T13:08:45.836Z,40.50
2018-07-01T13:11:14.403Z,39.70
2018-07-01T13:13:42.907Z,41.00
2018-07-01T13:16:11.458Z,42.50
2018-07-01T13:18:39.947Z,43.20
2018-07-01T13:21:08.523Z,41.90
2018-07-01T13:26:05.333Z,43.20
2018-07-01T13:28:33.919Z,42.80
2018-07-01T13:31:02.479Z,44.00
2018-07-01T13:33:30.979Z,43.50
2018-07-01T13:35:59.727Z,44.10
2018-07-01T13:41:00.655Z,42.20
2018-07-01T13:43:29.224Z,40.90
2018-07-01T13:45:58.081Z,41.10
2018-07-01T13:53:22.932Z,40.60
2018-07-01T13:55:51.492Z,40.40
2018-07-01T13:58:20.052Z,40.70
2018-07-01T14:00:48.595Z,41.70
2018-07-01T14:03:17.102Z,40.90
2018-07-01T14:05:45.629Z,40.50
2018-07-01T14:08:14.173Z,39.50
2018-07-01T14:10:42.702Z,40.30
2018-07-01T14:13:11.185Z,39.60
2018-07-01T14:15:39.725Z,39.70
2018-07-01T14:18:08.361Z,39.90
2018-07-01T14:20:36.919Z,39.80
2018-07-01T14:23:05.581Z,39.30
2018-07-01T14:25:34.149Z,39.40
2018-07-01T14:28:02.686Z,40.20
2018-07-01T14:30:31.223Z,38.10
2018-07-01T14:35:27.853Z,38.70
2018-07-01T14:37:56.380Z,38.90
2018-07-01T14:40:24.911Z,36.70
2018-07-01T14:42:53.400Z,37.30
2018-07-01T14:45:21.932Z,37.40
2018-07-01T14:47:50.471Z,37.60
2018-07-01T14:50:18.972Z,36.90
2018-07-01T14:52:47.462Z,36.60
2018-07-01T14:55:16.024Z,34.80
2018-07-01T14:57:44.534Z,35.30
2018-07-01T15:00:13.100Z,34.90
2018-07-01T15:02:41.618Z,35.10
2018-07-01T15:05:10.116Z,34.40
2018-07-01T15:07:38.607Z,35.10
2018-07-01T15:15:03.533Z,32.90
2018-07-01T15:17:32.102Z,33.30
2018-07-01T15:20:00.682Z,33.40
2018-07-01T15:22:29.221Z,33.30
2018-07-01T15:29:54.708Z,33.00
2018-07-01T15:32:23.298Z,33.30
2018-07-01T15:34:51.829Z,33.20
2018-07-01T15:37:20.376Z,32.60
2018-07-01T15:39:48.888Z,33.50
2018-07-01T15:42:17.492Z,34.80
2018-07-01T15:44:46.088Z,33.80
2018-07-01T15:47:14.637Z,34.90
2018-07-01T15:49:43.169Z,35.30
2018-07-01T15:52:11.717Z,34.50
2018-07-01T15:54:40.231Z,35.20
2018-07-01T15:57:08.808Z,35.70
2018-07-01T15:59:37.409Z,35.80
2018-07-01T16:02:06.017Z,34.60
2018-07-01T16:07:02.725Z,36.00
2018-07-01T16:09:31.267Z,36.50
2018-07-01T16:14:27.937Z,35.50
2018-07-01T16:16:56.473Z,35.40
2018-07-01T16:19:25.015Z,36.30
2018-07-01T16:21:53.889Z,37.20
2018-07-01T16:24:22.443Z,38.50
2018-07-01T16:27:01.214Z,39.00
2018-07-01T16:29:29.881Z,39.80
2018-07-01T16:31:58.393Z,40.00
2018-07-01T16:34:26.908Z,40.70
2018-07-01T16:36:55.431Z,40.50
2018-07-01T16:39:24.008Z,40.60
2018-07-01T16:41:52.515Z,40.90
2018-07-01T16:44:21.000Z,41.00
2018-07-01T16:46:49.490Z,41.80
2018-07-01T16:49:18.003Z,41.90
2018-07-01T16:51:46.495Z,42.30
2018-07-01T16:54:14.977Z,42.10
2018-07-01T16:56:43.545Z,42.10
2018-07-01T16:59:12.069Z,41.90
2018-07-01T17:01:40.564Z,42.10
2018-07-01T17:04:09.096Z,42.10
2018-07-01T17:06:37.630Z,41.90
2018-07-01T17:09:07.198Z,41.60
2018-07-01T17:11:35.734Z,42.50
2018-07-01T17:14:04.237Z,42.50
2018-07-01T17:16:32.818Z,42.20
2018-07-01T17:19:01.372Z,42.80
2018-07-01T17:21:29.903Z,43.00
2018-07-01T17:23:58.448Z,44.10
2018-07-01T17:26:26.939Z,44.20
2018-07-01T17:28:55.435Z,44.10
2018-07-01T17:31:29.217Z,44.10
2018-07-01T17:33:57.734Z,44.30
2018-07-01T17:36:26.269Z,44.70
2018-07-01T17:38:54.781Z,44.50
2018-07-01T17:41:23.269Z,45.00
2018-07-01T17:43:51.773Z,44.90
2018-07-01T17:46:20.285Z,45.90
2018-07-01T17:48:48.780Z,46.20
2018-07-01T17:51:17.297Z,46.00
2018-07-01T17:56:17.338Z,47.10
2018-07-01T17:58:45.898Z,47.10
2018-07-01T18:01:14.716Z,46.60
2018-07-01T18:08:39.531Z,48.00
2018-07-01T18:11:08.103Z,47.60
2018-07-01T18:13:36.972Z,47.80
2018-07-01T18:16:05.825Z,48.50
2018-07-01T18:18:34.345Z,48.60
2018-07-01T18:21:02.860Z,49.10
2018-07-01T18:24:02.956Z,48.70
2018-07-01T18:26:00.556Z,48.80
2018-07-01T18:28:41.524Z,49.50
2018-07-01T18:30:57.617Z,50.00
2018-07-01T18:33:26.203Z,49.90
2018-07-01T18:35:54.755Z,50.50
2018-07-01T18:38:23.281Z,50.30
2018-07-01T18:40:52.308Z,50.40
2018-07-01T18:43:20.347Z,50.20
2018-07-01T18:45:48.871Z,50.50
2018-07-01T18:48:17.394Z,51.10
2018-07-01T18:50:45.909Z,52.20
2018-07-01T18:53:14.450Z,52.70
2018-07-01T18:55:42.974Z,53.40
2018-07-01T18:58:11.460Z,53.20
2018-07-01T19:00:39.971Z,53.30
2018-07-01T19:03:08.781Z,52.70
2018-07-01T19:05:37.818Z,53.80
2018-07-01T19:08:06.331Z,53.00
2018-07-01T19:10:34.899Z,53.20
2018-07-01T19:13:03.405Z,53.30
2018-07-01T19:15:31.947Z,53.90
2018-07-01T19:18:00.464Z,53.30
2018-07-01T19:20:28.959Z,54.00
2018-07-01T19:22:57.560Z,54.80
2018-07-01T19:25:26.084Z,55.60
2018-07-01T19:30:22.788Z,56.10
2018-07-01T19:32:51.277Z,56.80
2018-07-01T19:35:19.833Z,56.90
2018-07-01T19:37:48.339Z,56.60
2018-07-01T19:40:16.841Z,55.90
2018-07-01T19:42:45.404Z,55.90
2018-07-01T19:45:13.851Z,55.60
2018-07-01T19:47:42.387Z,55.40
2018-07-01T19:50:10.930Z,55.00
2018-07-01T19:55:07.614Z,55.60
2018-07-01T20:00:04.562Z,55.80
2018-07-01T20:02:33.064Z,56.40
2018-07-01T20:07:29.827Z,56.70
2018-07-01T20:12:26.584Z,57.00
2018-07-01T20:14:55.084Z,57.50
2018-07-01T20:17:23.586Z,57.60
2018-07-01T20:19:52.079Z,58.20
2018-07-01T20:22:20.568Z,58.30
2018-07-01T20:24:49.138Z,58.50
2018-07-01T20:27:17.679Z,58.50
2018-07-01T20:29:46.186Z,58.20
2018-07-01T20:32:14.704Z,58.40
2018-07-01T20:34:43.235Z,58.40
2018-07-01T20:37:11.763Z,58.00
2018-07-01T20:47:04.806Z,60.40
2018-07-01T20:49:33.330Z,60.50
2018-07-01T20:52:01.826Z,61.30
2018-07-01T20:54:30.365Z,61.20
2018-07-01T20:56:58.901Z,62.00
2018-07-01T20:59:27.407Z,61.70
2018-07-01T21:01:55.921Z,61.20
2018-07-01T21:04:24.399Z,61.80
2018-07-01T21:06:52.897Z,61.80
2018-07-01T21:09:21.441Z,62.30
2018-07-01T21:11:50.017Z,63.30
2018-07-01T21:14:18.479Z,63.20
2018-07-01T21:16:47.045Z,63.10
2018-07-01T21:19:15.537Z,63.50
2018-07-01T21:21:44.056Z,63.70
2018-07-01T21:24:12.867Z,63.20
2018-07-01T21:26:41.373Z,63.40
2018-07-01T21:29:10.271Z,63.80
2018-07-01T21:31:38.777Z,64.60
2018-07-01T21:34:07.347Z,64.30
2018-07-01T21:36:35.887Z,64.90
2018-07-01T21:39:07.086Z,64.80
2018-07-01T21:41:35.653Z,65.70
2018-07-01T21:46:32.432Z,66.20
2018-07-01T21:49:00.937Z,66.20
2018-07-01T21:51:29.492Z,67.00
2018-07-01T21:53:58.004Z,67.00
2018-07-01T21:56:26.536Z,66.40
2018-07-01T21:58:55.088Z,66.70
2018-07-01T22:01:23.616Z,66.80
2018-07-01T22:03:52.207Z,67.00
2018-07-01T22:06:20.732Z,66.50
2018-07-01T22:08:49.255Z,67.10
2018-07-01T22:11:44.838Z,67.80
2018-07-01T22:14:22.534Z,67.90
2018-07-01T22:16:51.094Z,68.10
2018-07-01T22:19:20.098Z,68.70
2018-07-01T22:21:49.649Z,68.30
2018-07-01T22:24:18.179Z,69.10
2018-07-01T22:26:46.733Z,68.90
2018-07-01T22:29:16.253Z,69.10
2018-07-01T22:31:44.799Z,68.90
2018-07-01T22:34:15.490Z,69.40
2018-07-01T22:36:44.732Z,69.90
2018-07-01T22:39:24.054Z,70.20
2018-07-01T22:41:53.384Z,71.10
2018-07-01T22:44:22.001Z,71.30
2018-07-01T22:46:51.147Z,71.70
2018-07-01T22:49:19.707Z,71.00
2018-07-01T22:51:48.203Z,71.20
2018-07-01T22:54:16.719Z,71.60
2018-07-01T22:56:45.257Z,72.30
2018-07-01T22:59:13.795Z,72.70
2018-07-01T23:01:53.429Z,72.80
2018-07-01T23:04:21.929Z,73.20
2018-07-01T23:06:50.503Z,72.80
2018-07-01T23:09:19.045Z,72.50
2018-07-01T23:11:47.602Z,72.90
2018-07-01T23:14:16.150Z,72.80
2018-07-01T23:16:44.718Z,73.00
2018-07-01T23:19:13.228Z,73.30
2018-07-01T23:21:41.795Z,73.80
2018-07-01T23:24:10.448Z,74.10
2018-07-01T23:26:39.004Z,73.90
2018-07-01T23:29:07.674Z,74.50
2018-07-01T23:31:36.222Z,73.50
2018-07-01T23:34:04.822Z,74.00
2018-07-01T23:36:33.395Z,74.50
2018-07-01T23:39:01.916Z,74.60
2018-07-01T23:41:30.442Z,74.20
2018-07-01T23:43:58.995Z,74.80
2018-07-01T23:46:27.546Z,75.10
2018-07-01T23:48:56.071Z,74.90
2018-07-01T23:51:24.604Z,75.40
2018-07-01T23:53:53.118Z,75.50
2018-07-01T23:56:21.648Z,76.00
2018-07-01T23:58:50.211Z,76.70
